sensor_id;sensor_type;location;lat;lon;timestamp;P1;durP1;ratioP1;P2;durP2;ratioP2
47089;SDS011;32840;52.516;13.294;2023-05-10T00:01:41;10.50;;;5.68;;
47089;SDS011;32840;52.516;13.294;2023-05-10T00:04:26;8.43;;;6.15;;
47089;SDS011;32840;52.516;13.294;2023-05-10T00:07:11;9.65;;;6.07;;
47089;SDS011;32840;52.516;13.294;2023-05-10T00:09:56;8.88;;;5.82;;
47089;SDS011;32840;52.516;13.294;2023-05-10T00:12:41;8.57;;;6.15;;
47089;SDS011;32840;52.516;13.294;2023-05-10T00:15:26;7.20;;;5.65;;
47089;SDS011;32840;52.516;13.294;2023-05-10T00:18:11;9.40;;;5.78;;
47089;SDS011;32840;52.516;13.294;2023-05-10T00:20:56;8.10;;;5.88;;
47089;SDS011;32840;52.516;13.294;2023-05-10T00:23:41;8.98;;;5.97;;
47089;SDS011;32840;52.516;13.294;2023-05-10T00:26:26;8.60;;;5.72;;
47089;SDS011;32840;52.516;13.294;2023-05-10T00:29:10;8.68;;;6.32;;
47089;SDS011;32840;52.516;13.294;2023-05-10T00:31:55;9.35;;;5.93;;
47089;SDS011;32840;52.516;13.294;2023-05-10T00:34:40;8.52;;;5.68;;
47089;SDS011;32840;52.516;13.294;2023-05-10T00:37:26;7.00;;;5.75;;
47089;SDS011;32840;52.516;13.294;2023-05-10T00:40:11;8.43;;;5.78;;
47089;SDS011;32840;52.516;13.294;2023-05-10T00:42:56;9.05;;;5.97;;
47089;SDS011;32840;52.516;13.294;2023-05-10T00:45:42;7.47;;;5.63;;
47089;SDS011;32840;52.516;13.294;2023-05-10T00:48:28;9.05;;;5.75;;
47089;SDS011;32840;52.516;13.294;2023-05-10T00:51:14;9.18;;;5.72;;
47089;SDS011;32840;52.516;13.294;2023-05-10T00:53:59;7.85;;;5.85;;
47089;SDS011;32840;52.516;13.294;2023-05-10T00:56:44;7.10;;;5.63;;
47089;SDS011;32840;52.516;13.294;2023-05-10T00:59:33;7.57;;;5.90;;
47089;SDS011;32840;52.516;13.294;2023-05-10T01:02:18;14.00;;;6.22;;
47089;SDS011;32840;52.516;13.294;2023-05-10T01:05:03;9.30;;;6.32;;
47089;SDS011;32840;52.516;13.294;2023-05-10T01:07:49;7.15;;;5.93;;
47089;SDS011;32840;52.516;13.294;2023-05-10T01:10:34;8.80;;;6.32;;
47089;SDS011;32840;52.516;13.294;2023-05-10T01:13:24;11.88;;;6.68;;
47089;SDS011;32840;52.516;13.294;2023-05-10T01:16:17;9.00;;;6.93;;
47089;SDS011;32840;52.516;13.294;2023-05-10T01:19:03;9.80;;;6.63;;
47089;SDS011;32840;52.516;13.294;2023-05-10T01:25:06;10.05;;;6.35;;
47089;SDS011;32840;52.516;13.294;2023-05-10T01:34:39;11.98;;;6.68;;
47089;SDS011;32840;52.516;13.294;2023-05-10T01:37:57;9.63;;;6.95;;
47089;SDS011;32840;52.516;13.294;2023-05-10T01:40:56;10.45;;;6.82;;
47089;SDS011;32840;52.516;13.294;2023-05-10T01:47:43;11.30;;;6.50;;
47089;SDS011;32840;52.516;13.294;2023-05-10T01:50:24;10.82;;;6.88;;
47089;SDS011;32840;52.516;13.294;2023-05-10T01:53:13;9.13;;;6.55;;
47089;SDS011;32840;52.516;13.294;2023-05-10T01:56:03;9.95;;;7.00;;
47089;SDS011;32840;52.516;13.294;2023-05-10T01:58:48;10.05;;;6.55;;
47089;SDS011;32840;52.516;13.294;2023-05-10T02:01:36;8.90;;;6.60;;
47089;SDS011;32840;52.516;13.294;2023-05-10T02:04:21;8.95;;;6.22;;
47089;SDS011;32840;52.516;13.294;2023-05-10T02:07:07;8.07;;;6.25;;
47089;SDS011;32840;52.516;13.294;2023-05-10T02:09:53;9.80;;;6.60;;
47089;SDS011;32840;52.516;13.294;2023-05-10T02:12:41;10.68;;;7.05;;
47089;SDS011;32840;52.516;13.294;2023-05-10T02:15:27;10.35;;;6.32;;
47089;SDS011;32840;52.516;13.294;2023-05-10T02:18:13;8.27;;;6.93;;
47089;SDS011;32840;52.516;13.294;2023-05-10T02:21:00;11.10;;;6.50;;
47089;SDS011;32840;52.516;13.294;2023-05-10T02:23:48;11.93;;;6.63;;
47089;SDS011;32840;52.516;13.294;2023-05-10T02:26:35;11.05;;;6.32;;
47089;SDS011;32840;52.516;13.294;2023-05-10T02:29:23;11.57;;;7.45;;
47089;SDS011;32840;52.516;13.294;2023-05-10T02:32:10;8.35;;;6.25;;
47089;SDS011;32840;52.516;13.294;2023-05-10T02:34:56;9.25;;;6.90;;
47089;SDS011;32840;52.516;13.294;2023-05-10T02:37:43;14.77;;;7.05;;
47089;SDS011;32840;52.516;13.294;2023-05-10T02:40:29;10.88;;;6.50;;
47089;SDS011;32840;52.516;13.294;2023-05-10T02:43:15;10.63;;;6.28;;
47089;SDS011;32840;52.516;13.294;2023-05-10T02:46:02;12.18;;;7.20;;
47089;SDS011;32840;52.516;13.294;2023-05-10T02:48:47;8.65;;;6.15;;
47089;SDS011;32840;52.516;13.294;2023-05-10T02:51:34;8.27;;;5.88;;
47089;SDS011;32840;52.516;13.294;2023-05-10T02:54:24;7.35;;;6.40;;
47089;SDS011;32840;52.516;13.294;2023-05-10T02:57:15;9.98;;;6.30;;
47089;SDS011;32840;52.516;13.294;2023-05-10T03:00:03;10.05;;;6.47;;
47089;SDS011;32840;52.516;13.294;2023-05-10T03:02:49;8.68;;;5.85;;
47089;SDS011;32840;52.516;13.294;2023-05-10T03:05:33;8.48;;;6.40;;
47089;SDS011;32840;52.516;13.294;2023-05-10T03:08:18;9.25;;;7.00;;
47089;SDS011;32840;52.516;13.294;2023-05-10T03:17:35;11.90;;;6.15;;
47089;SDS011;32840;52.516;13.294;2023-05-10T03:20:35;9.38;;;6.03;;
47089;SDS011;32840;52.516;13.294;2023-05-10T03:23:45;10.38;;;6.50;;
47089;SDS011;32840;52.516;13.294;2023-05-10T03:26:48;9.43;;;5.75;;
47089;SDS011;32840;52.516;13.294;2023-05-10T03:29:34;7.93;;;5.78;;
47089;SDS011;32840;52.516;13.294;2023-05-10T03:32:21;7.70;;;5.53;;
47089;SDS011;32840;52.516;13.294;2023-05-10T03:35:07;8.82;;;6.20;;
47089;SDS011;32840;52.516;13.294;2023-05-10T03:37:56;10.98;;;6.00;;
47089;SDS011;32840;52.516;13.294;2023-05-10T03:40:40;13.35;;;5.78;;
47089;SDS011;32840;52.516;13.294;2023-05-10T03:43:25;11.23;;;6.63;;
47089;SDS011;32840;52.516;13.294;2023-05-10T03:46:10;8.35;;;6.00;;
47089;SDS011;32840;52.516;13.294;2023-05-10T03:48:55;8.35;;;5.93;;
47089;SDS011;32840;52.516;13.294;2023-05-10T03:51:40;10.57;;;6.50;;
47089;SDS011;32840;52.516;13.294;2023-05-10T03:54:25;11.55;;;5.80;;
47089;SDS011;32840;52.516;13.294;2023-05-10T03:57:10;10.75;;;6.03;;
47089;SDS011;32840;52.516;13.294;2023-05-10T03:59:55;7.07;;;5.68;;
47089;SDS011;32840;52.516;13.294;2023-05-10T04:02:40;10.75;;;6.35;;
47089;SDS011;32840;52.516;13.294;2023-05-10T04:05:25;11.82;;;5.95;;
47089;SDS011;32840;52.516;13.294;2023-05-10T04:08:10;6.93;;;5.22;;
47089;SDS011;32840;52.516;13.294;2023-05-10T04:10:54;7.88;;;5.43;;
47089;SDS011;32840;52.516;13.294;2023-05-10T04:13:49;8.50;;;5.50;;
47089;SDS011;32840;52.516;13.294;2023-05-10T04:16:34;7.53;;;5.55;;
47089;SDS011;32840;52.516;13.294;2023-05-10T04:19:19;10.30;;;6.63;;
47089;SDS011;32840;52.516;13.294;2023-05-10T04:22:04;9.30;;;5.70;;
47089;SDS011;32840;52.516;13.294;2023-05-10T04:24:49;11.10;;;5.55;;
47089;SDS011;32840;52.516;13.294;2023-05-10T04:27:34;10.27;;;5.47;;
47089;SDS011;32840;52.516;13.294;2023-05-10T04:30:19;9.57;;;5.43;;
47089;SDS011;32840;52.516;13.294;2023-05-10T04:33:04;8.60;;;5.60;;
47089;SDS011;32840;52.516;13.294;2023-05-10T04:35:49;11.02;;;5.78;;
47089;SDS011;32840;52.516;13.294;2023-05-10T04:38:34;8.43;;;5.38;;
47089;SDS011;32840;52.516;13.294;2023-05-10T04:41:19;9.20;;;5.40;;
47089;SDS011;32840;52.516;13.294;2023-05-10T04:44:04;13.38;;;5.40;;
47089;SDS011;32840;52.516;13.294;2023-05-10T04:46:50;7.07;;;5.38;;
47089;SDS011;32840;52.516;13.294;2023-05-10T04:49:35;10.57;;;5.25;;
47089;SDS011;32840;52.516;13.294;2023-05-10T04:52:19;8.27;;;5.60;;
47089;SDS011;32840;52.516;13.294;2023-05-10T04:55:04;8.93;;;5.35;;
47089;SDS011;32840;52.516;13.294;2023-05-10T04:57:51;11.35;;;5.20;;
47089;SDS011;32840;52.516;13.294;2023-05-10T05:00:36;11.38;;;5.82;;
47089;SDS011;32840;52.516;13.294;2023-05-10T05:03:21;8.07;;;5.07;;
47089;SDS011;32840;52.516;13.294;2023-05-10T05:06:06;8.10;;;5.15;;
47089;SDS011;32840;52.516;13.294;2023-05-10T05:08:51;7.80;;;5.47;;
47089;SDS011;32840;52.516;13.294;2023-05-10T05:11:36;10.20;;;5.40;;
47089;SDS011;32840;52.516;13.294;2023-05-10T05:14:21;10.90;;;6.55;;
47089;SDS011;32840;52.516;13.294;2023-05-10T05:17:06;11.18;;;6.22;;
47089;SDS011;32840;52.516;13.294;2023-05-10T05:19:51;11.80;;;5.57;;
47089;SDS011;32840;52.516;13.294;2023-05-10T05:22:37;11.48;;;6.32;;
47089;SDS011;32840;52.516;13.294;2023-05-10T05:25:22;7.82;;;5.30;;
47089;SDS011;32840;52.516;13.294;2023-05-10T05:28:13;8.50;;;5.18;;
47089;SDS011;32840;52.516;13.294;2023-05-10T05:31:04;17.48;;;5.75;;
47089;SDS011;32840;52.516;13.294;2023-05-10T05:33:50;12.02;;;5.07;;
47089;SDS011;32840;52.516;13.294;2023-05-10T05:36:37;8.15;;;4.00;;
47089;SDS011;32840;52.516;13.294;2023-05-10T05:39:22;7.90;;;5.00;;
47089;SDS011;32840;52.516;13.294;2023-05-10T05:42:07;8.35;;;4.68;;
47089;SDS011;32840;52.516;13.294;2023-05-10T05:44:56;7.82;;;4.07;;
47089;SDS011;32840;52.516;13.294;2023-05-10T05:47:41;10.18;;;3.97;;
47089;SDS011;32840;52.516;13.294;2023-05-10T05:50:26;6.32;;;3.70;;
47089;SDS011;32840;52.516;13.294;2023-05-10T05:53:11;8.65;;;4.47;;
47089;SDS011;32840;52.516;13.294;2023-05-10T05:55:57;6.03;;;4.00;;
47089;SDS011;32840;52.516;13.294;2023-05-10T05:58:42;6.90;;;3.85;;
47089;SDS011;32840;52.516;13.294;2023-05-10T06:01:28;6.00;;;3.80;;
47089;SDS011;32840;52.516;13.294;2023-05-10T06:04:13;9.60;;;5.55;;
47089;SDS011;32840;52.516;13.294;2023-05-10T06:06:58;7.55;;;4.50;;
47089;SDS011;32840;52.516;13.294;2023-05-10T06:09:42;8.73;;;3.78;;
47089;SDS011;32840;52.516;13.294;2023-05-10T06:12:28;6.63;;;3.97;;
47089;SDS011;32840;52.516;13.294;2023-05-10T06:15:12;8.75;;;4.18;;
47089;SDS011;32840;52.516;13.294;2023-05-10T06:17:58;6.60;;;4.00;;
47089;SDS011;32840;52.516;13.294;2023-05-10T06:20:42;5.63;;;4.03;;
47089;SDS011;32840;52.516;13.294;2023-05-10T06:23:27;8.80;;;3.90;;
47089;SDS011;32840;52.516;13.294;2023-05-10T06:26:13;7.38;;;3.97;;
47089;SDS011;32840;52.516;13.294;2023-05-10T06:28:57;11.98;;;4.22;;
47089;SDS011;32840;52.516;13.294;2023-05-10T06:31:42;5.53;;;3.75;;
47089;SDS011;32840;52.516;13.294;2023-05-10T06:34:27;6.90;;;3.88;;
47089;SDS011;32840;52.516;13.294;2023-05-10T06:37:12;8.38;;;3.95;;
47089;SDS011;32840;52.516;13.294;2023-05-10T06:39:57;5.80;;;3.15;;
47089;SDS011;32840;52.516;13.294;2023-05-10T06:42:42;7.00;;;4.03;;
47089;SDS011;32840;52.516;13.294;2023-05-10T06:45:29;7.00;;;3.33;;
47089;SDS011;32840;52.516;13.294;2023-05-10T06:48:14;10.07;;;3.53;;
47089;SDS011;32840;52.516;13.294;2023-05-10T06:50:59;5.70;;;3.72;;
47089;SDS011;32840;52.516;13.294;2023-05-10T06:53:44;9.10;;;3.47;;
47089;SDS011;32840;52.516;13.294;2023-05-10T06:56:29;6.30;;;3.28;;
47089;SDS011;32840;52.516;13.294;2023-05-10T06:59:13;6.75;;;3.30;;
47089;SDS011;32840;52.516;13.294;2023-05-10T07:01:59;6.70;;;3.33;;
47089;SDS011;32840;52.516;13.294;2023-05-10T07:04:44;12.57;;;9.15;;
47089;SDS011;32840;52.516;13.294;2023-05-10T07:07:31;7.18;;;3.20;;
47089;SDS011;32840;52.516;13.294;2023-05-10T07:10:16;6.63;;;3.38;;
47089;SDS011;32840;52.516;13.294;2023-05-10T07:13:01;4.93;;;3.15;;
47089;SDS011;32840;52.516;13.294;2023-05-10T07:15:46;4.47;;;2.85;;
47089;SDS011;32840;52.516;13.294;2023-05-10T07:18:31;5.45;;;3.20;;
47089;SDS011;32840;52.516;13.294;2023-05-10T07:21:16;5.72;;;2.88;;
47089;SDS011;32840;52.516;13.294;2023-05-10T07:24:00;6.55;;;3.05;;
47089;SDS011;32840;52.516;13.294;2023-05-10T07:26:45;6.70;;;3.10;;
47089;SDS011;32840;52.516;13.294;2023-05-10T07:29:31;6.57;;;3.30;;
47089;SDS011;32840;52.516;13.294;2023-05-10T07:32:15;12.15;;;3.85;;
47089;SDS011;32840;52.516;13.294;2023-05-10T07:35:01;6.43;;;3.25;;
47089;SDS011;32840;52.516;13.294;2023-05-10T07:37:45;4.82;;;3.20;;
47089;SDS011;32840;52.516;13.294;2023-05-10T07:40:31;6.93;;;3.25;;
47089;SDS011;32840;52.516;13.294;2023-05-10T07:43:15;4.47;;;3.00;;
47089;SDS011;32840;52.516;13.294;2023-05-10T07:46:00;4.70;;;3.15;;
47089;SDS011;32840;52.516;13.294;2023-05-10T07:48:45;4.93;;;3.30;;
47089;SDS011;32840;52.516;13.294;2023-05-10T07:51:30;5.43;;;2.95;;
47089;SDS011;32840;52.516;13.294;2023-05-10T07:54:15;5.07;;;3.20;;
47089;SDS011;32840;52.516;13.294;2023-05-10T07:57:00;5.28;;;2.42;;
47089;SDS011;32840;52.516;13.294;2023-05-10T07:59:45;4.95;;;3.03;;
47089;SDS011;32840;52.516;13.294;2023-05-10T08:02:30;6.72;;;3.40;;
47089;SDS011;32840;52.516;13.294;2023-05-10T08:05:15;7.97;;;3.42;;
47089;SDS011;32840;52.516;13.294;2023-05-10T08:08:00;5.05;;;2.90;;
47089;SDS011;32840;52.516;13.294;2023-05-10T08:10:44;6.13;;;3.13;;
47089;SDS011;32840;52.516;13.294;2023-05-10T08:13:29;3.58;;;2.40;;
47089;SDS011;32840;52.516;13.294;2023-05-10T08:16:16;5.70;;;2.78;;
47089;SDS011;32840;52.516;13.294;2023-05-10T08:19:01;6.85;;;2.97;;
47089;SDS011;32840;52.516;13.294;2023-05-10T08:21:46;4.03;;;2.58;;
47089;SDS011;32840;52.516;13.294;2023-05-10T08:24:31;6.57;;;3.03;;
47089;SDS011;32840;52.516;13.294;2023-05-10T08:27:15;6.95;;;3.10;;
47089;SDS011;32840;52.516;13.294;2023-05-10T08:30:00;5.28;;;2.80;;
47089;SDS011;32840;52.516;13.294;2023-05-10T08:32:45;5.18;;;2.85;;
47089;SDS011;32840;52.516;13.294;2023-05-10T08:35:30;5.82;;;3.13;;
47089;SDS011;32840;52.516;13.294;2023-05-10T08:38:15;4.95;;;2.80;;
47089;SDS011;32840;52.516;13.294;2023-05-10T08:41:01;6.22;;;2.83;;
47089;SDS011;32840;52.516;13.294;2023-05-10T08:43:47;8.00;;;2.75;;
47089;SDS011;32840;52.516;13.294;2023-05-10T08:46:32;5.53;;;2.40;;
47089;SDS011;32840;52.516;13.294;2023-05-10T08:49:23;7.07;;;3.28;;
47089;SDS011;32840;52.516;13.294;2023-05-10T08:52:11;14.38;;;7.07;;
47089;SDS011;32840;52.516;13.294;2023-05-10T08:54:59;6.68;;;2.58;;
47089;SDS011;32840;52.516;13.294;2023-05-10T08:57:44;7.45;;;3.33;;
47089;SDS011;32840;52.516;13.294;2023-05-10T09:00:29;4.38;;;2.70;;
47089;SDS011;32840;52.516;13.294;2023-05-10T09:03:14;8.50;;;3.00;;
47089;SDS011;32840;52.516;13.294;2023-05-10T09:06:00;5.63;;;2.53;;
47089;SDS011;32840;52.516;13.294;2023-05-10T09:08:45;5.47;;;3.15;;
47089;SDS011;32840;52.516;13.294;2023-05-10T09:11:30;5.50;;;2.83;;
47089;SDS011;32840;52.516;13.294;2023-05-10T09:14:15;8.35;;;3.17;;
47089;SDS011;32840;52.516;13.294;2023-05-10T09:17:01;6.00;;;3.10;;
47089;SDS011;32840;52.516;13.294;2023-05-10T09:19:46;6.40;;;3.20;;
47089;SDS011;32840;52.516;13.294;2023-05-10T09:22:31;4.28;;;3.25;;
47089;SDS011;32840;52.516;13.294;2023-05-10T09:25:16;5.43;;;2.80;;
47089;SDS011;32840;52.516;13.294;2023-05-10T09:28:01;9.48;;;3.05;;
47089;SDS011;32840;52.516;13.294;2023-05-10T09:30:52;8.30;;;3.05;;
47089;SDS011;32840;52.516;13.294;2023-05-10T09:33:46;6.10;;;2.80;;
47089;SDS011;32840;52.516;13.294;2023-05-10T09:36:31;5.60;;;3.53;;
47089;SDS011;32840;52.516;13.294;2023-05-10T09:39:16;5.28;;;3.10;;
47089;SDS011;32840;52.516;13.294;2023-05-10T09:42:03;8.90;;;3.20;;
47089;SDS011;32840;52.516;13.294;2023-05-10T09:44:50;7.22;;;2.97;;
47089;SDS011;32840;52.516;13.294;2023-05-10T09:47:35;6.40;;;2.95;;
47089;SDS011;32840;52.516;13.294;2023-05-10T09:50:20;9.20;;;6.22;;
47089;SDS011;32840;52.516;13.294;2023-05-10T09:53:06;3.90;;;2.97;;
47089;SDS011;32840;52.516;13.294;2023-05-10T09:55:51;4.82;;;2.97;;
47089;SDS011;32840;52.516;13.294;2023-05-10T09:58:36;4.18;;;2.78;;
47089;SDS011;32840;52.516;13.294;2023-05-10T10:01:25;4.38;;;2.80;;
47089;SDS011;32840;52.516;13.294;2023-05-10T10:04:10;5.07;;;3.10;;
47089;SDS011;32840;52.516;13.294;2023-05-10T10:07:03;5.78;;;3.88;;
47089;SDS011;32840;52.516;13.294;2023-05-10T10:09:48;5.57;;;3.25;;
47089;SDS011;32840;52.516;13.294;2023-05-10T10:12:34;7.55;;;3.00;;
47089;SDS011;32840;52.516;13.294;2023-05-10T10:15:23;3.90;;;3.10;;
47089;SDS011;32840;52.516;13.294;2023-05-10T10:18:08;5.78;;;3.67;;
47089;SDS011;32840;52.516;13.294;2023-05-10T10:20:57;5.88;;;2.60;;
47089;SDS011;32840;52.516;13.294;2023-05-10T10:23:42;6.40;;;2.90;;
47089;SDS011;32840;52.516;13.294;2023-05-10T10:26:27;7.38;;;3.30;;
47089;SDS011;32840;52.516;13.294;2023-05-10T10:29:21;4.85;;;2.75;;
47089;SDS011;32840;52.516;13.294;2023-05-10T10:32:24;5.35;;;2.70;;
47089;SDS011;32840;52.516;13.294;2023-05-10T10:35:14;4.45;;;3.15;;
47089;SDS011;32840;52.516;13.294;2023-05-10T10:37:59;5.60;;;3.17;;
47089;SDS011;32840;52.516;13.294;2023-05-10T10:40:44;7.60;;;2.90;;
47089;SDS011;32840;52.516;13.294;2023-05-10T10:43:29;8.82;;;3.03;;
47089;SDS011;32840;52.516;13.294;2023-05-10T10:46:15;5.80;;;3.03;;
47089;SDS011;32840;52.516;13.294;2023-05-10T10:49:10;6.20;;;3.58;;
47089;SDS011;32840;52.516;13.294;2023-05-10T10:57:52;6.07;;;2.90;;
47089;SDS011;32840;52.516;13.294;2023-05-10T11:00:44;8.30;;;3.15;;
47089;SDS011;32840;52.516;13.294;2023-05-10T11:03:29;3.90;;;2.65;;
47089;SDS011;32840;52.516;13.294;2023-05-10T11:06:16;6.18;;;2.60;;
47089;SDS011;32840;52.516;13.294;2023-05-10T11:09:17;4.78;;;2.72;;
47089;SDS011;32840;52.516;13.294;2023-05-10T11:12:06;5.57;;;2.88;;
47089;SDS011;32840;52.516;13.294;2023-05-10T11:14:52;7.07;;;3.27;;
47089;SDS011;32840;52.516;13.294;2023-05-10T11:17:42;5.53;;;3.25;;
47089;SDS011;32840;52.516;13.294;2023-05-10T11:20:27;4.80;;;3.00;;
47089;SDS011;32840;52.516;13.294;2023-05-10T11:23:17;5.32;;;4.63;;
47089;SDS011;32840;52.516;13.294;2023-05-10T11:26:03;10.23;;;4.50;;
47089;SDS011;32840;52.516;13.294;2023-05-10T11:28:53;8.13;;;3.28;;
47089;SDS011;32840;52.516;13.294;2023-05-10T11:31:43;7.93;;;3.17;;
47089;SDS011;32840;52.516;13.294;2023-05-10T11:34:31;5.82;;;3.28;;
47089;SDS011;32840;52.516;13.294;2023-05-10T11:37:19;5.45;;;3.30;;
47089;SDS011;32840;52.516;13.294;2023-05-10T11:40:04;4.53;;;3.03;;
47089;SDS011;32840;52.516;13.294;2023-05-10T11:42:50;7.50;;;2.95;;
47089;SDS011;32840;52.516;13.294;2023-05-10T11:45:34;12.43;;;3.08;;
47089;SDS011;32840;52.516;13.294;2023-05-10T11:48:20;9.40;;;2.88;;
47089;SDS011;32840;52.516;13.294;2023-05-10T11:51:08;5.85;;;2.65;;
47089;SDS011;32840;52.516;13.294;2023-05-10T11:53:54;4.07;;;2.42;;
47089;SDS011;32840;52.516;13.294;2023-05-10T11:56:40;7.15;;;2.55;;
47089;SDS011;32840;52.516;13.294;2023-05-10T11:59:25;6.57;;;2.47;;
47089;SDS011;32840;52.516;13.294;2023-05-10T12:02:10;7.78;;;3.08;;
47089;SDS011;32840;52.516;13.294;2023-05-10T12:04:55;6.65;;;3.22;;
47089;SDS011;32840;52.516;13.294;2023-05-10T12:07:40;3.60;;;2.28;;
47089;SDS011;32840;52.516;13.294;2023-05-10T12:10:25;8.88;;;3.13;;
47089;SDS011;32840;52.516;13.294;2023-05-10T12:13:11;6.05;;;2.67;;
47089;SDS011;32840;52.516;13.294;2023-05-10T12:15:58;7.72;;;3.30;;
47089;SDS011;32840;52.516;13.294;2023-05-10T12:18:44;4.00;;;2.50;;
47089;SDS011;32840;52.516;13.294;2023-05-10T12:21:32;8.57;;;3.10;;
47089;SDS011;32840;52.516;13.294;2023-05-10T12:24:17;6.82;;;2.90;;
47089;SDS011;32840;52.516;13.294;2023-05-10T12:27:07;8.25;;;3.15;;
47089;SDS011;32840;52.516;13.294;2023-05-10T12:29:53;5.32;;;2.70;;
47089;SDS011;32840;52.516;13.294;2023-05-10T12:32:39;5.97;;;2.67;;
47089;SDS011;32840;52.516;13.294;2023-05-10T12:35:24;6.82;;;2.55;;
47089;SDS011;32840;52.516;13.294;2023-05-10T12:38:25;8.75;;;3.10;;
47089;SDS011;32840;52.516;13.294;2023-05-10T12:41:17;5.85;;;2.70;;
47089;SDS011;32840;52.516;13.294;2023-05-10T12:44:03;7.55;;;2.67;;
47089;SDS011;32840;52.516;13.294;2023-05-10T12:46:47;7.90;;;3.22;;
47089;SDS011;32840;52.516;13.294;2023-05-10T12:49:32;5.82;;;3.70;;
47089;SDS011;32840;52.516;13.294;2023-05-10T12:52:18;6.35;;;2.83;;
47089;SDS011;32840;52.516;13.294;2023-05-10T12:55:03;8.95;;;6.03;;
47089;SDS011;32840;52.516;13.294;2023-05-10T12:57:48;5.53;;;3.10;;
47089;SDS011;32840;52.516;13.294;2023-05-10T13:00:32;11.27;;;5.22;;
47089;SDS011;32840;52.516;13.294;2023-05-10T13:03:17;6.65;;;3.20;;
47089;SDS011;32840;52.516;13.294;2023-05-10T13:06:02;5.68;;;3.58;;
47089;SDS011;32840;52.516;13.294;2023-05-10T13:08:47;7.15;;;3.22;;
47089;SDS011;32840;52.516;13.294;2023-05-10T13:11:33;12.70;;;8.75;;
47089;SDS011;32840;52.516;13.294;2023-05-10T13:14:17;5.03;;;2.55;;
47089;SDS011;32840;52.516;13.294;2023-05-10T13:17:04;4.07;;;2.97;;
47089;SDS011;32840;52.516;13.294;2023-05-10T13:19:49;4.90;;;2.85;;
47089;SDS011;32840;52.516;13.294;2023-05-10T13:22:33;6.47;;;3.53;;
47089;SDS011;32840;52.516;13.294;2023-05-10T13:25:19;5.80;;;2.58;;
47089;SDS011;32840;52.516;13.294;2023-05-10T13:28:03;4.38;;;2.60;;
47089;SDS011;32840;52.516;13.294;2023-05-10T13:30:48;6.10;;;3.83;;
47089;SDS011;32840;52.516;13.294;2023-05-10T13:33:33;5.53;;;3.22;;
47089;SDS011;32840;52.516;13.294;2023-05-10T13:36:18;5.90;;;3.03;;
47089;SDS011;32840;52.516;13.294;2023-05-10T13:39:03;8.32;;;3.40;;
47089;SDS011;32840;52.516;13.294;2023-05-10T13:41:49;7.82;;;3.88;;
47089;SDS011;32840;52.516;13.294;2023-05-10T13:44:34;4.85;;;2.83;;
47089;SDS011;32840;52.516;13.294;2023-05-10T13:47:20;6.82;;;2.95;;
47089;SDS011;32840;52.516;13.294;2023-05-10T13:50:05;3.78;;;2.90;;
47089;SDS011;32840;52.516;13.294;2023-05-10T13:52:51;5.75;;;3.10;;
47089;SDS011;32840;52.516;13.294;2023-05-10T13:55:36;6.35;;;4.13;;
47089;SDS011;32840;52.516;13.294;2023-05-10T13:58:20;7.95;;;2.80;;
47089;SDS011;32840;52.516;13.294;2023-05-10T14:01:05;5.78;;;3.03;;
47089;SDS011;32840;52.516;13.294;2023-05-10T14:03:51;3.53;;;2.53;;
47089;SDS011;32840;52.516;13.294;2023-05-10T14:06:36;7.10;;;3.45;;
47089;SDS011;32840;52.516;13.294;2023-05-10T14:09:21;7.07;;;3.70;;
47089;SDS011;32840;52.516;13.294;2023-05-10T14:12:06;3.88;;;2.70;;
47089;SDS011;32840;52.516;13.294;2023-05-10T14:14:51;4.22;;;2.50;;
47089;SDS011;32840;52.516;13.294;2023-05-10T14:17:36;5.50;;;3.13;;
47089;SDS011;32840;52.516;13.294;2023-05-10T14:20:21;9.63;;;3.28;;
47089;SDS011;32840;52.516;13.294;2023-05-10T14:23:06;5.32;;;2.60;;
47089;SDS011;32840;52.516;13.294;2023-05-10T14:25:51;4.65;;;2.47;;
47089;SDS011;32840;52.516;13.294;2023-05-10T14:28:36;5.07;;;3.72;;
47089;SDS011;32840;52.516;13.294;2023-05-10T14:31:21;5.50;;;2.70;;
47089;SDS011;32840;52.516;13.294;2023-05-10T14:34:08;3.75;;;2.90;;
47089;SDS011;32840;52.516;13.294;2023-05-10T14:36:53;9.48;;;3.20;;
47089;SDS011;32840;52.516;13.294;2023-05-10T14:39:38;7.22;;;2.60;;
47089;SDS011;32840;52.516;13.294;2023-05-10T14:42:23;4.82;;;2.50;;
47089;SDS011;32840;52.516;13.294;2023-05-10T14:45:08;6.95;;;2.88;;
47089;SDS011;32840;52.516;13.294;2023-05-10T14:47:53;5.25;;;2.78;;
47089;SDS011;32840;52.516;13.294;2023-05-10T14:50:38;7.90;;;2.75;;
47089;SDS011;32840;52.516;13.294;2023-05-10T14:53:23;8.45;;;3.03;;
47089;SDS011;32840;52.516;13.294;2023-05-10T14:56:08;6.45;;;3.05;;
47089;SDS011;32840;52.516;13.294;2023-05-10T14:58:53;4.28;;;3.00;;
47089;SDS011;32840;52.516;13.294;2023-05-10T15:01:38;9.35;;;2.90;;
47089;SDS011;32840;52.516;13.294;2023-05-10T15:04:25;4.15;;;2.50;;
47089;SDS011;32840;52.516;13.294;2023-05-10T15:07:10;4.80;;;2.72;;
47089;SDS011;32840;52.516;13.294;2023-05-10T15:09:58;10.32;;;3.53;;
47089;SDS011;32840;52.516;13.294;2023-05-10T15:12:43;5.70;;;2.80;;
47089;SDS011;32840;52.516;13.294;2023-05-10T15:15:28;6.95;;;2.88;;
47089;SDS011;32840;52.516;13.294;2023-05-10T15:18:14;5.88;;;2.80;;
47089;SDS011;32840;52.516;13.294;2023-05-10T15:20:59;10.95;;;4.47;;
47089;SDS011;32840;52.516;13.294;2023-05-10T15:23:44;7.35;;;3.20;;
47089;SDS011;32840;52.516;13.294;2023-05-10T15:26:28;5.03;;;2.63;;
47089;SDS011;32840;52.516;13.294;2023-05-10T15:29:13;6.85;;;3.90;;
47089;SDS011;32840;52.516;13.294;2023-05-10T15:32:03;4.35;;;3.35;;
47089;SDS011;32840;52.516;13.294;2023-05-10T15:34:48;4.03;;;2.35;;
47089;SDS011;32840;52.516;13.294;2023-05-10T15:37:33;6.68;;;3.78;;
47089;SDS011;32840;52.516;13.294;2023-05-10T15:40:18;5.40;;;3.00;;
47089;SDS011;32840;52.516;13.294;2023-05-10T15:43:03;7.35;;;2.80;;
47089;SDS011;32840;52.516;13.294;2023-05-10T15:45:49;6.97;;;3.47;;
47089;SDS011;32840;52.516;13.294;2023-05-10T15:48:34;5.97;;;3.20;;
47089;SDS011;32840;52.516;13.294;2023-05-10T15:51:19;5.07;;;2.90;;
47089;SDS011;32840;52.516;13.294;2023-05-10T15:54:04;3.42;;;2.53;;
47089;SDS011;32840;52.516;13.294;2023-05-10T15:56:50;6.25;;;3.40;;
47089;SDS011;32840;52.516;13.294;2023-05-10T15:59:35;7.55;;;3.00;;
47089;SDS011;32840;52.516;13.294;2023-05-10T16:02:21;7.00;;;3.17;;
47089;SDS011;32840;52.516;13.294;2023-05-10T16:05:06;4.18;;;3.20;;
47089;SDS011;32840;52.516;13.294;2023-05-10T16:07:52;4.38;;;3.47;;
47089;SDS011;32840;52.516;13.294;2023-05-10T16:10:38;4.75;;;2.80;;
47089;SDS011;32840;52.516;13.294;2023-05-10T16:13:23;5.75;;;2.92;;
47089;SDS011;32840;52.516;13.294;2023-05-10T16:16:08;8.60;;;3.47;;
47089;SDS011;32840;52.516;13.294;2023-05-10T16:18:53;7.72;;;3.65;;
47089;SDS011;32840;52.516;13.294;2023-05-10T16:21:37;9.35;;;3.95;;
47089;SDS011;32840;52.516;13.294;2023-05-10T16:24:22;9.38;;;5.20;;
47089;SDS011;32840;52.516;13.294;2023-05-10T16:27:08;17.42;;;10.50;;
47089;SDS011;32840;52.516;13.294;2023-05-10T16:29:53;19.98;;;14.15;;
47089;SDS011;32840;52.516;13.294;2023-05-10T16:32:38;15.77;;;11.25;;
47089;SDS011;32840;52.516;13.294;2023-05-10T16:35:23;16.80;;;11.60;;
47089;SDS011;32840;52.516;13.294;2023-05-10T16:38:07;13.02;;;6.90;;
47089;SDS011;32840;52.516;13.294;2023-05-10T16:40:52;12.32;;;7.10;;
47089;SDS011;32840;52.516;13.294;2023-05-10T16:43:38;14.02;;;9.35;;
47089;SDS011;32840;52.516;13.294;2023-05-10T16:46:23;12.05;;;8.55;;
47089;SDS011;32840;52.516;13.294;2023-05-10T16:49:08;10.73;;;7.43;;